Time;durP1;ratioP1;P1;durP2;ratioP2;P2;SDS_P1;SDS_P2;PMS_P1;PMS_P2;Temp;Humidity;BMP_temperature;BMP_pressure;BME280_temperature;BME280_humidity;BME280_pressure;Samples;Min_cycle;Max_cycle;Signal;HPM_P1;HPM_P2
2021/08/26 00:06:48;;;;;;;9.40;6.10;;;;;;;13.45;74.53;99589.27;93465;1202;98646;-70
2021/08/26 00:08:56;;;;;;;9.60;5.70;;;;;;;13.45;74.35;99589.17;93480;1203;87898;-70
2021/08/26 00:11:14;;;;;;;10.30;6.50;;;;;;;13.44;74.51;99579.09;93495;1205;93189;-69
2021/08/26 00:13:23;;;;;;;9.40;6.20;;;;;;;13.47;74.50;99576.02;93472;1203;79974;-64
2021/08/26 00:15:30;;;;;;;8.30;6.20;;;;;;;13.46;74.49;99574.29;93475;1203;82315;-65
2021/08/26 00:17:39;;;;;;;10.20;6.00;;;;;;;13.46;74.44;99568.48;93495;1202;95782;-65
2021/08/26 00:19:49;;;;;;;9.70;6.30;;;;;;;13.48;74.50;99565.14;93483;1202;88324;-65
2021/08/26 00:21:56;;;;;;;9.50;6.30;;;;;;;13.47;74.57;99563.27;93469;1195;95742;-70
2021/08/26 00:24:06;;;;;;;7.80;5.70;;;;;;;13.50;74.50;99559.43;93485;1202;79053;-68
2021/08/26 00:26:14;;;;;;;9.70;6.10;;;;;;;13.53;74.52;99555.09;93488;1206;82176;-65
2021/08/26 00:28:21;;;;;;;10.00;6.00;;;;;;;13.57;74.38;99551.53;93500;1196;97674;-63
2021/08/26 00:30:29;;;;;;;9.30;6.00;;;;;;;13.58;74.54;99547.77;93473;1204;87702;-64
2021/08/26 00:32:40;;;;;;;10.60;6.80;;;;;;;13.58;74.55;99541.59;93509;1202;93824;-64
2021/08/26 00:34:47;;;;;;;10.20;6.40;;;;;;;13.56;74.56;99543.49;93488;1202;77807;-63
2021/08/26 00:36:55;;;;;;;9.90;6.70;;;;;;;13.59;74.55;99545.96;93488;1202;81121;-63
2021/08/26 00:39:02;;;;;;;9.40;6.20;;;;;;;13.60;74.55;99538.89;93471;1202;98224;-63
2021/08/26 00:41:10;;;;;;;11.50;6.70;;;;;;;13.65;74.42;99542.03;93518;1200;87221;-64
2021/08/26 00:43:18;;;;;;;11.10;5.90;;;;;;;13.68;74.43;99537.45;93500;1202;93854;-63
2021/08/26 00:45:26;;;;;;;8.90;6.50;;;;;;;13.70;74.46;99534.25;93495;1202;79374;-63
2021/08/26 00:47:33;;;;;;;11.00;7.10;;;;;;;13.71;74.49;99531.45;93503;1202;80809;-64
2021/08/26 00:49:41;;;;;;;12.20;6.30;;;;;;;13.67;74.41;99528.43;93492;1205;96173;-65
2021/08/26 00:51:49;;;;;;;9.10;6.30;;;;;;;13.69;74.34;99527.77;93475;1204;85983;-66
2021/08/26 00:53:56;;;;;;;8.10;5.90;;;;;;;13.73;74.34;99524.77;93483;1202;95613;-64
2021/08/26 00:56:15;;;;;;;8.90;5.70;;;;;;;13.75;74.40;99519.67;93463;1203;79802;-63
2021/08/26 00:58:23;;;;;;;10.80;6.60;;;;;;;13.73;74.46;99520.05;93523;1204;82020;-69
2021/08/26 01:00:31;;;;;;;11.90;6.60;;;;;;;13.73;74.54;99519.38;93495;1202;96619;-70
2021/08/26 01:02:50;;;;;;;10.60;6.60;;;;;;;13.68;74.61;99525.73;93502;1202;87402;-70
2021/08/26 01:05:08;;;;;;;9.20;6.10;;;;;;;13.66;74.66;99524.27;93487;1202;93391;-70
2021/08/26 01:07:24;;;;;;;10.30;6.20;;;;;;;13.63;74.60;99519.09;93490;1202;81248;-65
2021/08/26 01:09:41;;;;;;;10.40;7.00;;;;;;;13.64;74.77;99521.97;93522;1202;80381;-63
2021/08/26 01:11:50;;;;;;;9.80;6.30;;;;;;;13.67;74.85;99515.72;93489;1202;97169;-70
2021/08/26 01:13:58;;;;;;;9.00;6.40;;;;;;;13.69;75.06;99509.23;93489;1203;86935;-69
2021/08/26 01:16:08;;;;;;;12.10;6.80;;;;;;;13.72;75.30;99506.95;93468;1205;93894;-68
2021/08/26 01:18:15;;;;;;;13.70;7.10;;;;;;;13.72;75.34;99507.12;93465;1202;79679;-70
2021/08/26 01:20:23;;;;;;;10.70;6.60;;;;;;;13.70;75.49;99506.63;93486;1200;81087;-69
2021/08/26 01:22:34;;;;;;;12.40;6.40;;;;;;;13.64;75.64;99504.93;93510;1202;98765;-70
2021/08/26 01:24:46;;;;;;;9.70;6.30;;;;;;;13.62;75.80;99510.23;93491;1203;87740;-70
2021/08/26 01:26:59;;;;;;;9.60;6.20;;;;;;;13.61;75.85;99505.48;93465;1204;93827;-70
2021/08/26 01:29:09;;;;;;;10.50;6.10;;;;;;;13.66;75.92;99506.90;93465;1202;79820;-69
2021/08/26 01:31:18;;;;;;;9.10;6.40;;;;;;;13.65;76.08;99505.52;93482;1202;81669;-64
2021/08/26 01:33:29;;;;;;;10.50;6.00;;;;;;;13.69;76.01;99506.44;93404;1202;97496;-64
2021/08/26 01:35:38;;;;;;;9.60;6.00;;;;;;;13.72;76.04;99503.35;93489;1202;88014;-65
2021/08/26 01:37:46;;;;;;;9.70;6.80;;;;;;;13.70;76.24;99500.66;93493;1202;94315;-65
2021/08/26 01:39:55;;;;;;;9.60;6.20;;;;;;;13.70;76.42;99501.79;93501;1202;80136;-65
2021/08/26 01:42:03;;;;;;;9.70;6.70;;;;;;;13.70;76.51;99501.26;93491;1202;81640;-70
2021/08/26 01:44:15;;;;;;;9.40;6.10;;;;;;;13.62;76.65;99495.89;93449;1202;98349;-70
2021/08/26 01:46:23;;;;;;;10.20;6.50;;;;;;;13.65;76.70;99496.90;93468;1202;88403;-71
2021/08/26 01:48:30;;;;;;;9.60;6.30;;;;;;;13.66;76.82;99496.09;93365;1204;94084;-69
2021/08/26 01:50:38;;;;;;;12.20;7.30;;;;;;;13.70;76.93;99493.11;93467;1202;79863;-68
2021/08/26 01:52:46;;;;;;;10.20;6.60;;;;;;;13.67;77.12;99491.02;93506;1202;81934;-69
2021/08/26 01:54:55;;;;;;;9.50;6.70;;;;;;;13.65;77.19;99489.06;93462;1203;98255;-68
2021/08/26 01:57:03;;;;;;;8.70;6.40;;;;;;;13.55;77.53;99487.18;93495;1195;86501;-69
2021/08/26 01:59:10;;;;;;;11.60;6.60;;;;;;;13.44;77.59;99480.16;93461;1202;95055;-69
2021/08/26 02:01:21;;;;;;;9.40;5.90;;;;;;;13.45;77.58;99477.36;93480;1202;80614;-67
2021/08/26 02:03:28;;;;;;;9.90;6.40;;;;;;;13.49;77.72;99476.33;93477;1202;81744;-68
2021/08/26 02:05:36;;;;;;;12.00;7.30;;;;;;;13.50;77.88;99473.89;93476;1202;98892;-69
2021/08/26 02:07:48;;;;;;;9.70;6.10;;;;;;;13.54;77.84;99474.39;93465;1202;88140;-68
2021/08/26 02:09:56;;;;;;;9.90;6.60;;;;;;;13.53;77.99;99469.55;93452;1202;94617;-68
2021/08/26 02:12:04;;;;;;;9.60;6.50;;;;;;;13.47;78.09;99469.27;93488;1202;79268;-67
2021/08/26 02:14:12;;;;;;;10.90;6.00;;;;;;;13.46;78.18;99467.20;93510;1202;82229;-68
2021/08/26 02:16:19;;;;;;;10.00;6.60;;;;;;;13.45;78.26;99463.58;93338;1200;96514;-63
2021/08/26 02:18:31;;;;;;;12.00;7.10;;;;;;;13.41;78.37;99460.38;93493;1202;88144;-62
2021/08/26 02:20:39;;;;;;;12.30;6.40;;;;;;;13.36;78.41;99460.95;93537;1197;92681;-62
2021/08/26 02:22:47;;;;;;;10.00;7.00;;;;;;;13.37;78.40;99455.98;93415;1202;79875;-62
2021/08/26 02:24:54;;;;;;;10.00;6.30;;;;;;;13.34;78.59;99460.35;93445;1202;82724;-64
2021/08/26 02:27:03;;;;;;;10.80;6.60;;;;;;;13.34;78.72;99451.56;93398;1202;98530;-62
2021/08/26 02:29:13;;;;;;;11.50;6.90;;;;;;;13.31;79.10;99452.56;93389;1202;88100;-63
2021/08/26 02:31:20;;;;;;;10.10;6.10;;;;;;;13.22;79.11;99444.11;93403;1202;94022;-68
2021/08/26 02:33:28;;;;;;;8.90;6.30;;;;;;;13.25;79.05;99443.38;93412;1202;79968;-68
2021/08/26 02:35:35;;;;;;;9.40;6.60;;;;;;;13.31;79.26;99442.79;93419;1202;80699;-69
2021/08/26 02:37:43;;;;;;;10.30;6.40;;;;;;;13.35;79.41;99438.52;93426;1202;97553;-69
2021/08/26 02:39:51;;;;;;;11.10;6.20;;;;;;;13.33;79.67;99444.10;93399;1202;87375;-63
2021/08/26 02:41:58;;;;;;;9.50;6.50;;;;;;;13.25;79.51;99442.74;93418;1203;95244;-63
2021/08/26 02:44:10;;;;;;;10.20;6.10;;;;;;;13.30;79.43;99447.27;93411;1202;81571;-62
2021/08/26 02:46:17;;;;;;;10.20;7.00;;;;;;;13.40;79.56;99446.30;93442;1202;80796;-63
2021/08/26 02:48:25;;;;;;;10.20;6.40;;;;;;;13.45;79.69;99445.51;93411;1202;98857;-62
2021/08/26 02:50:32;;;;;;;10.20;6.50;;;;;;;13.46;79.66;99446.29;93403;1202;87568;-69
2021/08/26 02:52:40;;;;;;;11.00;6.40;;;;;;;13.41;79.60;99444.27;93412;1202;94872;-69
2021/08/26 02:54:50;;;;;;;11.60;6.60;;;;;;;13.36;79.85;99442.60;93426;1202;81435;-69
2021/08/26 02:56:58;;;;;;;9.60;6.50;;;;;;;13.34;79.74;99443.46;93429;1202;82117;-68
2021/08/26 02:59:08;;;;;;;10.60;7.10;;;;;;;13.31;80.02;99442.67;93421;1202;99863;-68
2021/08/26 03:01:16;;;;;;;13.50;6.60;;;;;;;13.26;80.05;99441.78;93363;1204;88134;-68
2021/08/26 03:03:23;;;;;;;11.60;6.70;;;;;;;13.22;80.13;99438.58;93390;1203;94574;-69
2021/08/26 03:05:34;;;;;;;10.20;7.00;;;;;;;13.20;80.29;99437.89;93346;1204;82302;-68
2021/08/26 03:07:41;;;;;;;11.00;7.10;;;;;;;13.17;80.43;99432.81;93447;1204;80705;-69
2021/08/26 03:09:49;;;;;;;8.90;6.50;;;;;;;13.15;80.58;99436.75;93440;1203;97083;-63
2021/08/26 03:11:57;;;;;;;12.20;7.50;;;;;;;13.18;80.75;99430.86;93400;1202;86720;-62
2021/08/26 03:14:07;;;;;;;10.00;6.50;;;;;;;13.20;80.50;99435.48;93397;1205;93766;-63
2021/08/26 03:16:18;;;;;;;11.70;6.80;;;;;;;13.24;80.79;99428.98;93378;1203;81007;-67
2021/08/26 03:18:26;;;;;;;11.20;7.00;;;;;;;13.26;80.75;99431.54;93412;1204;80767;-68
2021/08/26 03:20:33;;;;;;;11.00;7.30;;;;;;;13.27;81.02;99424.98;93413;1205;99874;-68
2021/08/26 03:22:41;;;;;;;15.70;7.00;;;;;;;13.28;80.96;99422.42;93405;1203;88189;-68
2021/08/26 03:24:48;;;;;;;12.80;7.30;;;;;;;13.23;81.07;99424.55;93377;1203;94478;-68
2021/08/26 03:26:56;;;;;;;12.00;6.70;;;;;;;13.25;81.03;99423.75;93411;1204;81535;-68
2021/08/26 03:29:15;;;;;;;10.50;6.70;;;;;;;13.30;81.16;99423.08;93383;1205;80930;-69
2021/08/26 03:31:23;;;;;;;11.20;6.60;;;;;;;13.26;81.45;99423.71;93413;1202;97182;-69
2021/08/26 03:33:34;;;;;;;14.10;7.00;;;;;;;13.20;81.50;99423.16;93369;1204;87758;-68
2021/08/26 03:35:41;;;;;;;10.10;6.40;;;;;;;13.07;82.00;99422.15;93327;1196;93495;-63
2021/08/26 03:37:52;;;;;;;12.70;6.80;;;;;;;13.12;81.66;99423.65;93385;1205;80636;-63
2021/08/26 03:39:59;;;;;;;11.30;7.10;;;;;;;13.16;81.79;99423.34;93408;1204;80410;-69
2021/08/26 03:42:07;;;;;;;10.90;6.80;;;;;;;13.15;81.83;99419.02;93390;1203;97469;-68
2021/08/26 03:44:18;;;;;;;12.60;7.40;;;;;;;13.18;82.13;99418.14;93414;1204;87797;-66
2021/08/26 03:46:27;;;;;;;9.50;6.50;;;;;;;13.15;82.01;99418.16;93371;1204;93305;-65
2021/08/26 03:48:35;;;;;;;10.50;7.10;;;;;;;13.18;82.00;99414.34;93424;1203;81811;-65
2021/08/26 03:50:42;;;;;;;11.30;7.40;;;;;;;13.17;82.24;99417.50;93430;1202;82611;-69
2021/08/26 03:52:50;;;;;;;9.50;6.50;;;;;;;13.17;82.92;99416.95;93410;1205;100245;-70
2021/08/26 03:55:00;;;;;;;9.30;6.30;;;;;;;13.12;82.51;99417.82;93379;1204;86917;-66
2021/08/26 03:57:08;;;;;;;12.40;7.40;;;;;;;13.12;82.59;99413.98;93438;1204;95111;-64
2021/08/26 03:59:18;;;;;;;10.90;6.90;;;;;;;13.10;83.02;99409.62;93437;1205;81149;-70
2021/08/26 04:01:26;;;;;;;11.70;7.10;;;;;;;13.10;82.79;99409.54;93467;1202;82696;-70
2021/08/26 04:03:34;;;;;;;11.10;7.20;;;;;;;13.08;83.55;99409.56;93414;1203;98827;-69
2021/08/26 04:05:41;;;;;;;9.60;7.00;;;;;;;13.06;83.28;99409.07;93439;1203;87494;-65
2021/08/26 04:07:49;;;;;;;11.10;7.10;;;;;;;13.10;83.11;99404.16;93427;1202;94308;-66
2021/08/26 04:10:00;;;;;;;11.10;7.10;;;;;;;13.21;83.05;99404.92;93377;1203;81513;-65
2021/08/26 04:12:09;;;;;;;13.20;7.50;;;;;;;13.24;83.25;99404.70;93402;1202;81947;-65
2021/08/26 04:14:17;;;;;;;12.00;7.10;;;;;;;13.20;83.39;99402.88;93403;1202;98867;-65
2021/08/26 04:16:24;;;;;;;11.70;6.70;;;;;;;13.14;83.69;99402.84;93413;1202;87375;-66
2021/08/26 04:18:32;;;;;;;11.90;7.10;;;;;;;13.22;83.38;99401.92;93406;1204;92864;-65
2021/08/26 04:20:40;;;;;;;12.20;7.50;;;;;;;13.26;83.37;99400.63;93404;1204;81046;-65
2021/08/26 04:22:48;;;;;;;10.80;7.30;;;;;;;13.21;83.74;99399.88;93416;1203;81580;-64
2021/08/26 04:24:55;;;;;;;12.50;7.00;;;;;;;13.18;83.55;99401.20;93392;1204;98322;-70
2021/08/26 04:27:03;;;;;;;11.60;8.00;;;;;;;13.24;83.40;99396.70;93408;1202;86343;-70
2021/08/26 04:29:13;;;;;;;10.10;6.80;;;;;;;13.28;83.39;99389.55;93381;1204;94579;-70
2021/08/26 04:31:21;;;;;;;11.00;7.60;;;;;;;13.31;83.57;99388.66;93407;1205;78183;-69
2021/08/26 04:33:29;;;;;;;11.30;7.00;;;;;;;13.25;83.50;99393.05;93413;1203;80388;-70
2021/08/26 04:35:36;;;;;;;12.50;7.60;;;;;;;13.25;83.55;99388.05;93341;1204;98947;-70
2021/08/26 04:37:44;;;;;;;10.50;7.10;;;;;;;13.26;83.49;99385.65;93400;1203;88148;-70
2021/08/26 04:39:52;;;;;;;11.00;6.70;;;;;;;13.26;83.54;99386.52;93393;1204;94993;-65
2021/08/26 04:41:59;;;;;;;11.10;6.80;;;;;;;13.34;83.56;99381.61;93386;1204;79301;-65
2021/08/26 04:44:11;;;;;;;12.30;7.10;;;;;;;13.41;83.56;99377.09;93420;1204;81301;-66
2021/08/26 04:46:18;;;;;;;13.40;7.20;;;;;;;13.40;83.58;99377.45;93405;1203;98648;-65
2021/08/26 04:48:26;;;;;;;12.30;7.60;;;;;;;13.37;83.50;99377.52;93414;1202;87640;-64
2021/08/26 04:50:33;;;;;;;10.60;6.80;;;;;;;13.42;83.40;99380.98;93387;1204;94947;-69
2021/08/26 04:52:41;;;;;;;10.50;6.90;;;;;;;13.47;83.37;99385.83;93390;1204;79335;-68
2021/08/26 04:54:48;;;;;;;12.30;7.30;;;;;;;13.43;83.62;99388.27;93376;1205;82881;-62
2021/08/26 04:56:56;;;;;;;10.80;7.30;;;;;;;13.38;83.62;99387.21;93378;1205;97443;-62
2021/08/26 04:59:03;;;;;;;11.30;7.50;;;;;;;13.40;83.58;99390.86;93394;1203;87410;-62
2021/08/26 05:01:11;;;;;;;10.60;6.70;;;;;;;13.39;83.81;99384.91;93372;1203;92595;-69
2021/08/26 05:03:19;;;;;;;11.60;7.20;;;;;;;13.35;83.87;99384.05;93427;1204;80792;-70
2021/08/26 05:05:26;;;;;;;10.40;6.50;;;;;;;13.38;83.86;99389.05;93405;1203;81848;-61
2021/08/26 05:07:34;;;;;;;12.80;7.30;;;;;;;13.43;83.86;99385.93;93388;1205;97069;-62
2021/08/26 05:09:41;;;;;;;11.60;7.60;;;;;;;13.50;83.78;99388.75;93392;1204;87465;-73
2021/08/26 05:11:49;;;;;;;11.50;7.30;;;;;;;13.44;83.94;99384.28;93408;1203;94255;-75
2021/08/26 05:13:57;;;;;;;10.90;7.00;;;;;;;13.43;83.82;99379.68;93381;1203;80995;-74
2021/08/26 05:16:05;;;;;;;10.40;6.90;;;;;;;13.43;83.87;99379.38;93402;1205;82159;-72
2021/08/26 05:18:16;;;;;;;10.50;7.00;;;;;;;13.47;83.93;99377.48;93379;1202;98376;-72
2021/08/26 05:20:23;;;;;;;11.30;6.60;;;;;;;13.52;83.82;99378.04;93378;1200;87224;-65
2021/08/26 05:22:31;;;;;;;12.00;7.90;;;;;;;13.52;83.84;99374.86;93378;1203;94663;-66
2021/08/26 05:24:38;;;;;;;10.30;6.70;;;;;;;13.49;83.96;99373.06;93397;1203;80634;-66
2021/08/26 05:26:47;;;;;;;11.20;7.30;;;;;;;13.48;83.93;99373.08;93395;1203;81967;-66
2021/08/26 05:28:54;;;;;;;10.00;6.90;;;;;;;13.50;84.02;99374.38;93337;1204;98236;-66
2021/08/26 05:31:02;;;;;;;10.50;6.70;;;;;;;13.59;84.00;99368.14;93366;1202;87354;-73
2021/08/26 05:33:10;;;;;;;10.40;6.90;;;;;;;13.66;83.86;99365.93;93331;1203;93186;-71
2021/08/26 05:35:21;;;;;;;9.70;6.70;;;;;;;13.67;83.90;99364.17;93370;1202;80789;-62
2021/08/26 05:37:28;;;;;;;11.00;6.60;;;;;;;13.74;83.89;99362.27;93403;1204;80803;-62
2021/08/26 05:39:36;;;;;;;9.30;6.60;;;;;;;13.87;83.87;99363.78;93385;1202;97741;-71
2021/08/26 05:41:45;;;;;;;10.60;6.90;;;;;;;13.87;83.86;99367.92;93385;1202;88147;-73
2021/08/26 05:43:52;;;;;;;10.90;6.80;;;;;;;13.78;83.77;99368.55;93399;1203;94599;-71
2021/08/26 05:46:00;;;;;;;10.20;7.00;;;;;;;13.71;83.95;99369.14;93383;1203;80036;-62
2021/08/26 05:48:09;;;;;;;8.60;6.40;;;;;;;13.70;83.98;99364.34;93411;1202;80768;-64
2021/08/26 05:50:19;;;;;;;9.30;6.40;;;;;;;13.67;84.01;99367.09;93385;1200;97135;-64
2021/08/26 05:52:30;;;;;;;10.40;6.60;;;;;;;13.64;84.31;99366.48;93397;1203;87773;-63
2021/08/26 05:54:40;;;;;;;10.60;7.10;;;;;;;13.62;84.14;99370.23;93369;1203;94280;-73
2021/08/26 05:56:49;;;;;;;10.60;6.90;;;;;;;13.55;84.34;99369.64;93336;1204;81204;-73
2021/08/26 05:58:57;;;;;;;10.20;6.40;;;;;;;13.48;84.51;99369.13;93367;1203;80477;-72
2021/08/26 06:01:05;;;;;;;10.00;7.00;;;;;;;13.51;84.34;99372.56;93369;1203;98973;-64
2021/08/26 06:03:16;;;;;;;9.90;6.20;;;;;;;13.51;84.48;99369.97;93399;1202;88623;-63
2021/08/26 06:05:23;;;;;;;12.30;7.20;;;;;;;13.56;84.36;99375.36;93401;1204;94279;-72
2021/08/26 06:07:31;;;;;;;10.10;6.70;;;;;;;13.61;84.38;99373.30;93345;1202;80671;-73
2021/08/26 06:09:40;;;;;;;8.30;6.30;;;;;;;13.68;84.42;99377.60;93387;1202;80241;-63
2021/08/26 06:11:51;;;;;;;9.00;6.40;;;;;;;13.75;84.50;99376.52;93364;1202;97476;-62
2021/08/26 06:14:05;;;;;;;9.30;7.00;;;;;;;13.74;84.60;99379.00;93392;1202;87814;-61
2021/08/26 06:16:15;;;;;;;8.70;6.60;;;;;;;13.79;84.48;99380.77;93370;1203;94548;-61
2021/08/26 06:18:22;;;;;;;11.70;6.70;;;;;;;13.81;84.48;99381.06;93375;1202;80023;-61
2021/08/26 06:20:31;;;;;;;7.90;6.20;;;;;;;13.82;84.47;99379.73;93389;1203;80213;-73
2021/08/26 06:22:38;;;;;;;9.80;6.80;;;;;;;13.86;84.62;99376.67;93405;1202;99161;-74
2021/08/26 06:24:46;;;;;;;8.90;6.50;;;;;;;13.91;84.63;99377.56;93349;1202;87008;-64
2021/08/26 06:26:53;;;;;;;8.00;5.70;;;;;;;14.04;84.55;99373.20;93369;1202;93577;-64
2021/08/26 06:29:02;;;;;;;9.00;6.10;;;;;;;14.14;84.47;99374.31;93373;1202;80584;-64
2021/08/26 06:31:09;;;;;;;8.70;6.50;;;;;;;14.20;84.50;99376.13;93369;1203;81501;-75
2021/08/26 06:33:17;;;;;;;9.00;6.30;;;;;;;14.10;84.69;99375.23;93383;1202;98762;-75
2021/08/26 06:35:24;;;;;;;10.60;6.90;;;;;;;14.05;84.87;99376.37;93378;1200;86556;-73
2021/08/26 06:37:32;;;;;;;10.10;6.80;;;;;;;14.09;84.66;99373.20;93369;1203;94160;-73
2021/08/26 06:39:39;;;;;;;8.60;5.80;;;;;;;14.16;84.48;99370.22;93354;1203;79919;-63
2021/08/26 06:41:47;;;;;;;8.40;6.40;;;;;;;14.26;84.45;99366.23;93356;1204;80950;-63
2021/08/26 06:43:55;;;;;;;8.90;6.40;;;;;;;14.25;84.54;99376.82;93378;1202;97095;-63
2021/08/26 06:46:02;;;;;;;7.00;5.60;;;;;;;14.19;84.71;99381.58;93393;1203;88486;-63
2021/08/26 06:48:10;;;;;;;8.70;5.70;;;;;;;14.16;84.60;99377.50;93297;1204;94318;-63
2021/08/26 06:50:17;;;;;;;7.20;5.60;;;;;;;14.27;84.40;99376.96;93357;1203;80870;-63
2021/08/26 06:52:25;;;;;;;9.40;5.80;;;;;;;14.23;84.54;99378.52;93362;1200;81223;-62
2021/08/26 06:54:33;;;;;;;7.30;5.50;;;;;;;14.29;84.56;99377.09;93376;1202;97056;-72
2021/08/26 06:56:40;;;;;;;8.70;5.90;;;;;;;14.29;84.62;99375.23;93390;1203;88201;-72
2021/08/26 06:58:48;;;;;;;8.80;5.80;;;;;;;14.36;84.64;99378.95;93385;1203;94475;-70
2021/08/26 07:00:56;;;;;;;9.20;6.00;;;;;;;14.40;84.53;99378.33;93366;1195;79767;-70
2021/08/26 07:03:03;;;;;;;7.90;4.90;;;;;;;14.30;84.78;99375.24;93340;1203;82244;-72
2021/08/26 07:05:12;;;;;;;7.00;5.40;;;;;;;14.27;84.80;99373.66;93386;1203;97010;-71
2021/08/26 07:07:19;;;;;;;7.60;5.20;;;;;;;14.27;84.87;99378.55;93345;1203;86627;-75
2021/08/26 07:09:28;;;;;;;8.10;5.30;;;;;;;14.20;85.02;99381.27;93327;1203;94755;-74
2021/08/26 07:11:35;;;;;;;6.80;4.80;;;;;;;14.23;84.90;99384.23;93359;1202;79629;-74
2021/08/26 07:13:43;;;;;;;7.10;5.20;;;;;;;14.34;84.69;99382.86;93378;1202;81620;-74
2021/08/26 07:15:50;;;;;;;6.60;4.80;;;;;;;14.46;84.61;99380.69;93402;1203;98102;-64
2021/08/26 07:17:58;;;;;;;7.00;5.20;;;;;;;14.59;84.84;99380.23;93338;1198;88064;-64
2021/08/26 07:20:08;;;;;;;6.80;5.30;;;;;;;14.68;84.86;99381.27;93389;1195;93087;-65
2021/08/26 07:22:16;;;;;;;7.90;5.00;;;;;;;14.66;84.98;99381.38;93350;1203;78665;-65
2021/08/26 07:24:23;;;;;;;6.90;4.90;;;;;;;14.61;84.95;99378.66;93359;1202;82134;-65
2021/08/26 07:26:32;;;;;;;7.00;4.60;;;;;;;14.65;84.76;99376.73;93334;1203;99887;-63
2021/08/26 07:28:40;;;;;;;7.20;4.80;;;;;;;14.71;84.71;99379.33;93368;1202;87839;-66
2021/08/26 07:30:47;;;;;;;6.10;4.10;;;;;;;14.82;84.67;99378.17;93355;1203;93790;-79
2021/08/26 07:32:58;;;;;;;7.20;4.90;;;;;;;15.02;84.57;99378.28;93327;1202;80056;-77
2021/08/26 07:35:10;;;;;;;6.60;5.00;;;;;;;15.11;84.67;99376.73;93332;1202;81174;-79
2021/08/26 07:37:18;;;;;;;6.30;5.10;;;;;;;15.20;84.66;99382.55;93363;1202;98680;-79
2021/08/26 07:39:26;;;;;;;7.20;4.80;;;;;;;15.19;84.57;99381.88;93336;1200;87610;-79
2021/08/26 07:41:34;;;;;;;5.80;4.50;;;;;;;15.20;84.64;99377.39;93369;1202;95376;-77
2021/08/26 07:43:42;;;;;;;7.10;5.10;;;;;;;15.20;84.57;99379.94;93321;1204;81156;-78
2021/08/26 07:45:49;;;;;;;5.00;4.30;;;;;;;15.17;84.58;99382.01;93373;1203;80434;-76
2021/08/26 07:47:57;;;;;;;6.70;4.70;;;;;;;15.24;84.46;99380.95;93351;1202;98744;-81
2021/08/26 07:50:06;;;;;;;7.70;4.90;;;;;;;15.35;84.29;99383.86;93328;1203;87106;-75
2021/08/26 07:52:14;;;;;;;6.60;4.80;;;;;;;15.37;84.39;99382.92;93401;1202;92161;-78
2021/08/26 07:54:21;;;;;;;6.70;4.80;;;;;;;15.33;84.42;99385.58;93377;1202;81203;-74
2021/08/26 07:56:31;;;;;;;6.10;4.70;;;;;;;15.24;84.43;99387.80;93318;1199;81258;-73
2021/08/26 07:58:38;;;;;;;5.80;4.60;;;;;;;15.22;84.42;99388.96;93371;1203;98122;-74
2021/08/26 08:00:46;;;;;;;6.00;4.90;;;;;;;15.37;84.20;99387.98;93359;1203;86707;-76
2021/08/26 08:02:54;;;;;;;7.10;4.90;;;;;;;15.53;84.07;99386.88;93374;1202;92875;-77
2021/08/26 08:05:01;;;;;;;5.30;4.50;;;;;;;15.44;84.22;99388.39;93350;1197;79997;-78
2021/08/26 08:07:09;;;;;;;6.80;4.50;;;;;;;15.32;84.23;99388.33;93406;1202;81624;-77
2021/08/26 08:09:20;;;;;;;6.30;4.70;;;;;;;15.38;84.22;99390.40;93375;1202;97600;-67
2021/08/26 08:11:27;;;;;;;6.30;4.80;;;;;;;15.33;84.16;99388.23;93396;1202;87276;-67
2021/08/26 08:13:35;;;;;;;6.00;4.80;;;;;;;15.26;84.46;99388.65;93351;1202;93482;-67
2021/08/26 08:15:46;;;;;;;6.90;4.50;;;;;;;15.40;84.33;99387.00;93329;1203;80222;-65
2021/08/26 08:17:54;;;;;;;6.20;4.40;;;;;;;15.52;84.28;99386.88;93369;1203;81554;-65
2021/08/26 08:20:02;;;;;;;5.30;4.40;;;;;;;15.43;84.17;99386.14;93299;1203;99408;-63
2021/08/26 08:22:10;;;;;;;5.80;4.90;;;;;;;15.47;84.20;99386.23;93344;1203;88450;-61
2021/08/26 08:24:17;;;;;;;6.60;4.80;;;;;;;15.53;84.27;99386.73;93342;1203;94531;-68
2021/08/26 08:26:25;;;;;;;9.70;5.00;;;;;;;15.67;84.20;99382.33;93320;1203;79414;-70
2021/08/26 08:28:32;;;;;;;5.90;4.20;;;;;;;15.82;84.04;99381.98;93389;1202;81804;-70
2021/08/26 08:30:40;;;;;;;8.30;4.50;;;;;;;15.80;83.96;99382.66;93352;1202;98253;-62
2021/08/26 08:32:48;;;;;;;6.50;4.70;;;;;;;15.67;84.11;99387.89;93362;1195;88277;-62
2021/08/26 08:34:58;;;;;;;5.30;4.20;;;;;;;15.60;84.31;99386.59;93368;1203;93549;-70
2021/08/26 08:37:07;;;;;;;7.90;5.30;;;;;;;15.67;84.35;99384.57;93337;1203;79734;-73
2021/08/26 08:39:15;;;;;;;5.80;4.40;;;;;;;15.78;84.26;99383.13;93382;1202;81389;-71
2021/08/26 08:41:23;;;;;;;5.70;4.20;;;;;;;15.88;84.42;99381.10;93327;1203;98730;-73
2021/08/26 08:43:31;;;;;;;5.10;4.30;;;;;;;16.03;84.21;99378.72;93368;1203;87886;-72
2021/08/26 08:45:39;;;;;;;7.00;4.90;;;;;;;16.12;84.10;99382.77;93377;1203;94214;-64
2021/08/26 08:47:49;;;;;;;7.80;4.80;;;;;;;15.99;84.21;99383.11;93357;1203;81012;-65
2021/08/26 08:49:57;;;;;;;6.10;4.40;;;;;;;15.87;84.24;99383.60;93326;1202;80506;-73
2021/08/26 08:52:05;;;;;;;5.50;4.50;;;;;;;15.83;84.22;99386.30;93358;1203;98344;-74
2021/08/26 08:54:13;;;;;;;5.20;4.50;;;;;;;15.88;84.08;99386.93;93349;1202;86645;-71
2021/08/26 08:56:26;;;;;;;7.00;4.60;;;;;;;15.93;83.81;99385.27;93357;1203;94119;-65
2021/08/26 08:58:39;;;;;;;6.20;4.30;;;;;;;16.04;83.77;99384.65;93367;1203;81485;-65
2021/08/26 09:00:47;;;;;;;5.80;4.10;;;;;;;16.12;83.83;99385.77;93417;1203;80438;-74
2021/08/26 09:02:54;;;;;;;6.10;4.50;;;;;;;16.20;83.80;99385.67;93351;1203;98076;-74
2021/08/26 09:05:03;;;;;;;5.10;4.60;;;;;;;16.43;83.68;99375.59;93353;1203;87408;-67
2021/08/26 09:07:27;;;;;;;5.50;4.50;;;;;;;16.44;83.70;99377.06;93345;1203;93350;-67
2021/08/26 09:09:52;;;;;;;5.10;4.30;;;;;;;16.44;83.64;99375.13;93354;1202;79696;-66
2021/08/26 09:12:01;;;;;;;4.70;4.00;;;;;;;16.58;83.76;99375.15;93376;1202;81386;-65
2021/08/26 09:14:15;;;;;;;6.70;4.10;;;;;;;16.56;83.70;99374.81;93374;1203;99103;-66
2021/08/26 09:16:40;;;;;;;5.50;4.40;;;;;;;16.67;83.51;99367.64;93379;1203;87052;-65
2021/08/26 09:18:47;;;;;;;6.50;4.30;;;;;;;16.72;83.39;99373.98;93325;1202;93109;-66
2021/08/26 09:21:01;;;;;;;5.60;4.60;;;;;;;16.84;83.31;99372.83;93329;1202;77404;-79
2021/08/26 09:23:09;;;;;;;7.70;4.90;;;;;;;16.75;83.26;99371.84;93342;1203;81418;-77
2021/08/26 09:25:26;;;;;;;6.70;4.40;;;;;;;16.68;83.09;99369.08;93344;1202;98803;-64
2021/08/26 09:27:44;;;;;;;4.90;3.60;;;;;;;16.79;82.92;99370.80;93364;1203;86796;-65
2021/08/26 09:30:07;;;;;;;4.80;4.10;;;;;;;16.89;83.09;99363.65;93346;1202;93929;-78
2021/08/26 09:32:18;;;;;;;4.80;3.90;;;;;;;17.11;83.11;99360.02;93372;1203;79115;-75
2021/08/26 09:34:26;;;;;;;4.00;3.60;;;;;;;17.71;83.47;99361.81;93383;1203;80329;-75
2021/08/26 09:36:36;;;;;;;6.20;4.10;;;;;;;17.97;82.88;99359.73;93332;1203;98621;-76
2021/08/26 09:38:43;;;;;;;4.00;3.40;;;;;;;18.12;82.22;99356.59;93338;1202;86824;-77
2021/08/26 09:40:52;;;;;;;4.70;3.60;;;;;;;18.37;81.98;99357.20;93362;1203;92655;-78
2021/08/26 09:43:03;;;;;;;5.80;3.90;;;;;;;18.51;81.43;99354.48;93337;1202;79426;-77
2021/08/26 09:45:23;;;;;;;4.30;3.60;;;;;;;18.35;81.00;99350.39;93351;1203;80534;-63
2021/08/26 09:47:31;;;;;;;4.20;3.60;;;;;;;18.15;80.58;99353.06;93368;1202;98203;-62
2021/08/26 09:49:41;;;;;;;5.60;3.50;;;;;;;18.01;80.40;99352.27;93467;1198;86746;-77
2021/08/26 09:52:04;;;;;;;4.70;3.40;;;;;;;17.95;80.24;99352.66;93336;1203;94447;-74
2021/08/26 09:54:35;;;;;;;3.40;3.00;;;;;;;17.91;80.01;99349.79;93326;1203;80669;-75
2021/08/26 09:56:46;;;;;;;6.80;4.30;;;;;;;18.11;79.85;99355.30;93348;1197;80183;-75
2021/08/26 09:58:59;;;;;;;4.60;3.10;;;;;;;18.14;80.36;99356.95;93362;1203;98005;-74
2021/08/26 10:01:16;;;;;;;3.90;3.10;;;;;;;18.23;79.80;99356.30;93313;1203;87684;-73
2021/08/26 10:03:33;;;;;;;6.80;3.30;;;;;;;18.29;79.28;99356.92;93339;1203;94350;-75
2021/08/26 10:05:43;;;;;;;4.30;2.80;;;;;;;18.19;79.14;99356.49;93302;1203;79835;-74
2021/08/26 10:07:52;;;;;;;4.00;3.00;;;;;;;18.14;79.14;99356.51;93294;1203;80098;-73
2021/08/26 10:10:00;;;;;;;3.80;3.40;;;;;;;18.21;79.12;99355.08;93305;1203;99680;-65